createdAt,value
2022-09-03T00:02:03.375Z,19.30
2022-09-03T00:04:54.375Z,19.30
2022-09-03T00:07:47.162Z,19.30
2022-09-03T00:10:44.550Z,19.30
2022-09-03T00:13:36.011Z,19.40
2022-09-03T00:16:27.852Z,19.60
2022-09-03T00:19:18.899Z,19.70
2022-09-03T00:22:11.420Z,19.70
2022-09-03T00:25:01.060Z,19.80
2022-09-03T00:27:53.789Z,19.80
2022-09-03T00:30:42.028Z,19.80
2022-09-03T00:33:34.599Z,19.70
2022-09-03T00:36:25.633Z,19.60
2022-09-03T00:39:14.024Z,19.40
2022-09-03T00:42:14.354Z,19.30
2022-09-03T00:45:18.511Z,19.20
2022-09-03T00:48:17.475Z,19.20
2022-09-03T00:51:18.811Z,19.10
2022-09-03T00:54:13.004Z,19.10
2022-09-03T00:57:12.325Z,19.10
2022-09-03T01:00:05.839Z,19.20
2022-09-03T01:02:58.625Z,19.20
2022-09-03T01:06:09.131Z,19.10
2022-09-03T01:09:12.073Z,19.20
2022-09-03T01:12:02.558Z,19.00
2022-09-03T01:15:00.780Z,18.90
2022-09-03T01:17:59.982Z,18.90
2022-09-03T01:20:57.010Z,18.80
2022-09-03T01:24:09.026Z,18.80
2022-09-03T01:27:11.637Z,18.90
2022-09-03T01:30:05.573Z,18.90
2022-09-03T01:33:02.835Z,19.00
2022-09-03T01:35:54.376Z,19.00
2022-09-03T01:38:48.322Z,19.10
2022-09-03T01:42:04.575Z,19.20
2022-09-03T01:45:32.771Z,19.20
2022-09-03T01:48:34.059Z,19.30
2022-09-03T01:51:23.909Z,19.40
2022-09-03T01:54:40.085Z,19.20
2022-09-03T01:57:40.179Z,19.10
2022-09-03T02:00:34.120Z,19.20
2022-09-03T02:03:21.769Z,19.20
2022-09-03T02:06:09.354Z,19.20
2022-09-03T02:08:56.128Z,19.10
2022-09-03T02:11:44.044Z,19.10
2022-09-03T02:14:32.288Z,18.90
2022-09-03T02:17:20.107Z,19.00
2022-09-03T02:20:10.175Z,19.00
2022-09-03T02:22:58.689Z,19.00
2022-09-03T02:25:49.256Z,19.00
2022-09-03T02:28:36.097Z,19.00
2022-09-03T02:31:23.135Z,18.90
2022-09-03T02:34:11.736Z,18.90
2022-09-03T02:36:58.178Z,18.90
2022-09-03T02:39:45.704Z,18.90
2022-09-03T02:42:32.879Z,19.00
2022-09-03T02:45:27.348Z,18.90
2022-09-03T02:48:17.589Z,18.90
2022-09-03T02:51:13.576Z,18.80
2022-09-03T02:54:00.468Z,18.40
2022-09-03T02:56:48.313Z,18.00
2022-09-03T02:59:35.759Z,18.00
2022-09-03T03:02:22.890Z,17.80
2022-09-03T03:05:15.122Z,17.80
2022-09-03T03:08:03.958Z,17.70
2022-09-03T03:10:52.112Z,17.40
2022-09-03T03:13:38.849Z,17.30
2022-09-03T03:16:25.456Z,17.20
2022-09-03T03:19:12.481Z,17.20
2022-09-03T03:21:58.997Z,17.30
2022-09-03T03:24:46.889Z,17.40
2022-09-03T03:27:33.477Z,17.30
2022-09-03T03:30:20.926Z,17.40
2022-09-03T03:33:08.237Z,17.50
2022-09-03T03:35:55.070Z,17.60
2022-09-03T03:38:43.703Z,17.40
2022-09-03T03:41:34.586Z,17.40
2022-09-03T03:44:21.272Z,17.40
2022-09-03T03:47:07.849Z,17.50
2022-09-03T03:49:54.772Z,17.50
2022-09-03T03:52:41.259Z,17.60
2022-09-03T03:55:27.762Z,17.70
2022-09-03T03:58:15.605Z,17.90
2022-09-03T04:01:06.389Z,18.10
2022-09-03T04:03:56.641Z,18.10
2022-09-03T04:06:43.703Z,18.10
2022-09-03T04:09:30.231Z,18.20
2022-09-03T04:12:16.898Z,18.30
2022-09-03T04:15:06.765Z,18.40
2022-09-03T04:17:56.005Z,18.50
2022-09-03T04:20:43.101Z,18.50
2022-09-03T04:23:30.120Z,18.60
2022-09-03T04:26:18.676Z,18.60
2022-09-03T04:29:07.352Z,18.60
2022-09-03T04:32:12.896Z,18.50
2022-09-03T04:34:59.532Z,18.70
2022-09-03T04:37:46.012Z,18.70
2022-09-03T04:40:32.589Z,18.60
2022-09-03T04:43:18.939Z,18.60
2022-09-03T04:46:10.859Z,18.60
2022-09-03T04:49:07.218Z,18.50
2022-09-03T04:51:53.788Z,18.50
2022-09-03T04:54:40.134Z,18.40
2022-09-03T04:57:34.297Z,18.50
2022-09-03T05:00:21.745Z,18.40
2022-09-03T05:03:08.388Z,18.50
2022-09-03T05:05:57.469Z,18.50
2022-09-03T05:08:44.540Z,18.40
2022-09-03T05:11:31.693Z,18.40
2022-09-03T05:14:18.316Z,18.40
2022-09-03T05:17:04.833Z,18.40
2022-09-03T05:19:51.573Z,18.30
2022-09-03T05:22:39.161Z,18.30
2022-09-03T05:25:25.815Z,18.40
2022-09-03T05:28:13.233Z,18.40
2022-09-03T05:31:00.705Z,18.40
2022-09-03T05:33:49.096Z,18.40
2022-09-03T05:36:37.399Z,18.40
2022-09-03T05:39:25.443Z,18.40
2022-09-03T05:42:12.513Z,18.60
2022-09-03T05:44:59.867Z,18.60
2022-09-03T05:47:46.373Z,18.70
2022-09-03T05:50:33.037Z,18.60
2022-09-03T05:53:19.977Z,18.60
2022-09-03T05:56:10.812Z,18.60
2022-09-03T05:59:00.452Z,18.70
2022-09-03T06:01:51.606Z,18.70
2022-09-03T06:04:43.123Z,18.70
2022-09-03T06:07:29.826Z,18.50
2022-09-03T06:10:18.183Z,18.50
2022-09-03T06:13:07.493Z,18.70
2022-09-03T06:15:58.116Z,18.80
2022-09-03T06:18:44.809Z,18.80
2022-09-03T06:21:32.767Z,18.80
2022-09-03T06:24:23.156Z,18.50
2022-09-03T06:27:13.257Z,18.30
2022-09-03T06:30:02.420Z,18.10
2022-09-03T06:32:50.435Z,18.20
2022-09-03T06:35:42.971Z,18.20
2022-09-03T06:38:32.893Z,18.10
2022-09-03T06:41:24.955Z,17.90
2022-09-03T06:44:13.101Z,17.90
2022-09-03T06:47:01.511Z,18.00
2022-09-03T06:49:48.360Z,18.20
2022-09-03T06:52:34.828Z,18.30
2022-09-03T06:55:21.017Z,18.20
2022-09-03T06:58:07.326Z,18.20
2022-09-03T07:00:54.454Z,18.20
2022-09-03T07:03:43.917Z,18.40
2022-09-03T07:06:32.497Z,18.50
2022-09-03T07:09:19.152Z,18.50
2022-09-03T07:12:06.622Z,18.80
2022-09-03T07:14:53.432Z,19.00
2022-09-03T07:17:40.103Z,19.20
2022-09-03T07:20:28.542Z,19.40
2022-09-03T07:23:16.313Z,19.70
2022-09-03T07:26:04.823Z,19.90
2022-09-03T07:28:54.087Z,19.90
2022-09-03T07:31:42.602Z,20.00
2022-09-03T07:34:30.241Z,20.20
2022-09-03T07:37:18.677Z,20.20
2022-09-03T07:40:05.810Z,20.40
2022-09-03T07:43:01.918Z,20.40
2022-09-03T07:45:51.743Z,20.50
2022-09-03T07:48:38.426Z,20.30
2022-09-03T07:51:27.793Z,20.40
2022-09-03T07:54:16.065Z,20.40
2022-09-03T07:57:02.424Z,20.20
2022-09-03T07:59:49.336Z,20.30
2022-09-03T08:02:36.261Z,20.30
2022-09-03T08:05:22.676Z,20.40
2022-09-03T08:08:09.904Z,20.50
2022-09-03T08:11:09.918Z,20.60
2022-09-03T08:14:01.146Z,20.60
2022-09-03T08:16:48.851Z,20.50
2022-09-03T08:19:35.505Z,20.50
2022-09-03T08:22:22.745Z,20.40
2022-09-03T08:25:09.860Z,20.30
2022-09-03T08:28:02.091Z,20.30
2022-09-03T08:30:48.691Z,20.10
2022-09-03T08:33:38.339Z,20.10
2022-09-03T08:36:27.437Z,20.30
2022-09-03T08:39:14.513Z,20.30
2022-09-03T08:42:29.672Z,20.00
2022-09-03T08:45:21.596Z,20.20
2022-09-03T08:48:13.592Z,20.30
2022-09-03T08:51:04.615Z,20.60
2022-09-03T08:53:57.342Z,20.60
2022-09-03T08:56:44.756Z,20.50
2022-09-03T08:59:35.510Z,20.50
2022-09-03T09:02:33.935Z,20.50
2022-09-03T09:05:26.715Z,20.50
2022-09-03T09:08:25.498Z,20.10
2022-09-03T09:11:23.004Z,19.80
2022-09-03T09:14:20.350Z,19.90
2022-09-03T09:17:22.525Z,19.70
2022-09-03T09:20:19.542Z,19.60
2022-09-03T09:23:07.794Z,19.70
2022-09-03T09:25:58.319Z,19.90
2022-09-03T09:28:47.994Z,20.30
2022-09-03T09:31:39.822Z,20.40
2022-09-03T09:34:27.657Z,20.90
2022-09-03T09:37:17.742Z,21.40
2022-09-03T09:40:05.376Z,21.70
2022-09-03T09:42:58.580Z,21.40
2022-09-03T09:45:48.218Z,21.20
2022-09-03T09:48:40.930Z,21.20
2022-09-03T09:51:30.946Z,21.30
2022-09-03T09:54:21.274Z,21.60
2022-09-03T09:57:14.341Z,21.90
2022-09-03T10:00:08.797Z,22.10
2022-09-03T10:02:58.210Z,22.60
2022-09-03T10:05:56.368Z,23.00
2022-09-03T10:08:42.829Z,23.40
2022-09-03T10:11:31.285Z,23.50
2022-09-03T10:14:24.056Z,23.50
2022-09-03T10:17:15.945Z,23.70
2022-09-03T10:20:31.152Z,23.80
2022-09-03T10:23:22.888Z,24.00
2022-09-03T10:26:13.329Z,25.10
2022-09-03T10:29:04.025Z,26.20
2022-09-03T10:32:04.180Z,26.60
2022-09-03T10:35:00.001Z,26.10
2022-09-03T10:37:56.300Z,25.60
2022-09-03T10:40:50.929Z,25.70
2022-09-03T10:44:01.475Z,25.30
2022-09-03T10:47:01.224Z,25.60
2022-09-03T10:49:55.637Z,25.80
2022-09-03T10:52:57.896Z,25.70
2022-09-03T10:55:51.003Z,25.70
2022-09-03T10:58:51.267Z,25.80
2022-09-03T11:01:45.744Z,25.50
2022-09-03T11:04:44.282Z,25.10
2022-09-03T11:07:39.723Z,24.70
2022-09-03T11:10:31.282Z,24.10
2022-09-03T11:13:23.046Z,24.00
2022-09-03T11:16:14.805Z,23.90
2022-09-03T11:19:05.322Z,23.90
2022-09-03T11:21:54.289Z,23.80
2022-09-03T11:24:41.842Z,23.70
2022-09-03T11:27:44.309Z,23.60
2022-09-03T11:30:41.387Z,23.50
2022-09-03T11:33:29.211Z,23.10
2022-09-03T11:36:29.441Z,22.90
2022-09-03T11:39:25.271Z,23.00
2022-09-03T11:42:13.776Z,23.10
2022-09-03T11:45:14.654Z,23.30
2022-09-03T11:48:01.683Z,23.50
2022-09-03T11:50:56.543Z,23.60
2022-09-03T11:53:43.185Z,23.90
2022-09-03T11:56:32.693Z,24.10
2022-09-03T11:59:21.588Z,24.40
2022-09-03T12:02:21.955Z,24.60
2022-09-03T12:05:21.380Z,24.80
2022-09-03T12:08:43.487Z,24.70
2022-09-03T12:11:45.398Z,25.30
2022-09-03T12:14:38.676Z,25.70
2022-09-03T12:17:33.371Z,25.90
2022-09-03T12:20:23.555Z,26.10
2022-09-03T12:23:11.804Z,26.40
2022-09-03T12:26:01.057Z,26.50
2022-09-03T12:28:51.950Z,26.30
2022-09-03T12:31:47.592Z,26.20
2022-09-03T12:34:34.531Z,25.80
2022-09-03T12:40:31.865Z,25.60
2022-09-03T12:46:32.305Z,26.40
2022-09-03T12:49:30.222Z,26.50
2022-09-03T12:52:22.004Z,26.10
2022-09-03T12:55:16.336Z,25.70
2022-09-03T12:58:10.235Z,25.40
2022-09-03T13:01:07.046Z,25.20
2022-09-03T13:03:57.919Z,25.10
2022-09-03T13:06:51.993Z,25.30
2022-09-03T13:09:41.314Z,25.60
2022-09-03T13:12:33.477Z,26.00
2022-09-03T13:15:23.295Z,26.40
2022-09-03T13:18:20.985Z,26.30
2022-09-03T13:21:16.350Z,26.00
2022-09-03T13:24:19.466Z,25.60
2022-09-03T13:27:12.211Z,25.20
2022-09-03T13:30:06.923Z,24.80
2022-09-03T13:33:01.078Z,24.60
2022-09-03T13:35:52.596Z,24.50
2022-09-03T13:38:46.170Z,24.70
2022-09-03T13:41:39.359Z,24.90
2022-09-03T13:44:39.521Z,24.90
2022-09-03T13:47:33.461Z,24.90
2022-09-03T13:50:26.678Z,25.10
2022-09-03T13:53:24.504Z,25.20
2022-09-03T13:56:25.624Z,25.00
2022-09-03T13:59:19.577Z,25.00
2022-09-03T14:02:21.535Z,25.10
2022-09-03T14:05:12.803Z,25.30
2022-09-03T14:08:10.420Z,25.30
2022-09-03T14:11:05.169Z,25.30
2022-09-03T14:14:06.031Z,25.40
2022-09-03T14:16:58.926Z,25.30
2022-09-03T14:19:53.937Z,25.10
2022-09-03T14:22:51.853Z,24.90
2022-09-03T14:25:42.816Z,24.80
2022-09-03T14:28:36.678Z,24.70
2022-09-03T14:31:35.693Z,24.60
2022-09-03T14:34:34.626Z,24.60
2022-09-03T14:37:39.536Z,24.80
2022-09-03T14:40:32.307Z,24.90
2022-09-03T14:43:41.842Z,25.00
2022-09-03T14:46:44.381Z,25.10
2022-09-03T14:49:57.424Z,25.20
2022-09-03T14:53:03.122Z,25.20
2022-09-03T14:56:06.100Z,25.10
2022-09-03T14:59:14.817Z,25.10
2022-09-03T15:02:36.088Z,25.10
2022-09-03T15:05:40.874Z,25.10
2022-09-03T15:08:45.397Z,25.00
2022-09-03T15:11:33.811Z,24.90
2022-09-03T15:14:28.108Z,24.80
2022-09-03T15:17:47.722Z,24.70
2022-09-03T15:20:46.837Z,24.40
2022-09-03T15:23:52.833Z,24.30
2022-09-03T15:26:54.455Z,24.30
2022-09-03T15:29:53.651Z,24.20
2022-09-03T15:32:54.436Z,24.10
2022-09-03T15:35:56.601Z,23.90
2022-09-03T15:38:50.149Z,23.90
2022-09-03T15:41:42.630Z,23.80
2022-09-03T15:44:38.174Z,23.70
2022-09-03T15:47:43.124Z,23.60
2022-09-03T15:50:53.289Z,23.60
2022-09-03T15:53:46.434Z,23.60
2022-09-03T15:56:38.616Z,23.50
2022-09-03T15:59:31.542Z,23.60
2022-09-03T16:02:21.894Z,23.50
2022-09-03T16:05:16.222Z,23.50
2022-09-03T16:08:18.989Z,23.40
2022-09-03T16:11:10.545Z,23.40
2022-09-03T16:14:05.198Z,23.40
2022-09-03T16:17:03.850Z,23.40
2022-09-03T16:19:57.833Z,23.40
2022-09-03T16:22:47.950Z,23.40
2022-09-03T16:25:48.660Z,23.40
2022-09-03T16:28:43.762Z,23.50
2022-09-03T16:31:44.839Z,23.50
2022-09-03T16:34:42.014Z,23.40
2022-09-03T16:37:36.365Z,23.40
2022-09-03T16:40:34.601Z,23.40
2022-09-03T16:43:40.671Z,23.30
2022-09-03T16:46:36.860Z,23.40
2022-09-03T16:49:41.910Z,23.40
2022-09-03T16:52:39.480Z,23.50
2022-09-03T16:55:33.226Z,23.50
2022-09-03T16:58:27.614Z,23.40
2022-09-03T17:01:24.838Z,23.40
2022-09-03T17:04:46.957Z,23.50
2022-09-03T17:07:43.808Z,23.50
2022-09-03T17:10:40.345Z,23.30
2022-09-03T17:13:51.669Z,23.30
2022-09-03T17:16:53.256Z,23.30
2022-09-03T17:19:46.900Z,23.20
2022-09-03T17:22:46.646Z,23.10
2022-09-03T17:25:38.080Z,23.10
2022-09-03T17:28:34.435Z,23.10
2022-09-03T17:31:34.393Z,23.10
2022-09-03T17:34:39.924Z,23.10
2022-09-03T17:37:35.077Z,23.00
2022-09-03T17:40:30.029Z,22.90
2022-09-03T17:43:25.253Z,23.00
2022-09-03T17:46:25.987Z,22.80
2022-09-03T17:49:22.200Z,22.70
2022-09-03T17:52:27.223Z,22.60
2022-09-03T17:55:18.346Z,22.60
2022-09-03T17:58:14.417Z,22.60
2022-09-03T18:01:08.764Z,22.60
2022-09-03T18:03:57.100Z,22.60
2022-09-03T18:06:54.952Z,22.60
2022-09-03T18:09:51.663Z,22.40
2022-09-03T18:12:59.865Z,22.10
2022-09-03T18:15:54.223Z,21.90
2022-09-03T18:18:48.871Z,21.70
2022-09-03T18:21:57.568Z,21.60
2022-09-03T18:25:10.852Z,21.60
2022-09-03T18:28:18.495Z,21.50
2022-09-03T18:31:22.507Z,21.40
2022-09-03T18:34:27.751Z,21.30
2022-09-03T18:37:34.042Z,21.20
2022-09-03T18:40:44.400Z,21.00
2022-09-03T18:43:59.169Z,20.80
2022-09-03T18:50:46.140Z,20.20
2022-09-03T18:53:59.477Z,20.10
2022-09-03T18:57:07.677Z,19.90
2022-09-03T19:00:28.611Z,19.70
2022-09-03T19:03:47.481Z,19.60
2022-09-03T19:06:56.877Z,19.70
2022-09-03T19:10:12.676Z,19.70
2022-09-03T19:13:36.483Z,19.60
2022-09-03T19:16:50.559Z,19.50
2022-09-03T19:20:21.098Z,19.50
2022-09-03T19:23:25.344Z,19.70
2022-09-03T19:26:39.929Z,19.60
2022-09-03T19:29:58.737Z,19.70
2022-09-03T19:33:10.280Z,19.70
2022-09-03T19:36:28.085Z,19.60
2022-09-03T19:39:47.960Z,19.60
2022-09-03T19:43:05.498Z,19.40
2022-09-03T19:46:19.074Z,19.60
2022-09-03T19:49:31.437Z,19.70
2022-09-03T19:52:48.378Z,19.70
2022-09-03T19:55:57.363Z,19.80
2022-09-03T19:59:07.017Z,19.90
2022-09-03T20:02:12.392Z,19.70
2022-09-03T20:05:18.233Z,19.70
2022-09-03T20:08:24.136Z,19.70
2022-09-03T20:11:20.030Z,19.70
2022-09-03T20:14:16.589Z,19.90
2022-09-03T20:17:14.694Z,19.70
2022-09-03T20:20:13.347Z,19.70
2022-09-03T20:23:05.332Z,19.70
2022-09-03T20:26:11.286Z,19.80
2022-09-03T20:29:22.179Z,19.60
2022-09-03T20:32:16.979Z,19.50
2022-09-03T20:35:11.114Z,19.50
2022-09-03T20:38:08.321Z,19.40
2022-09-03T20:41:06.453Z,19.10
2022-09-03T20:44:16.966Z,19.10
2022-09-03T20:47:21.595Z,19.00
2022-09-03T20:50:14.835Z,18.80
2022-09-03T20:53:12.132Z,18.70
2022-09-03T20:56:04.637Z,18.60
2022-09-03T20:58:57.754Z,18.60
2022-09-03T21:01:54.892Z,18.50
2022-09-03T21:04:56.214Z,18.50
2022-09-03T21:07:53.102Z,18.60
2022-09-03T21:10:48.993Z,18.60
2022-09-03T21:13:42.581Z,18.70
2022-09-03T21:16:39.621Z,18.70
2022-09-03T21:19:41.812Z,18.80
2022-09-03T21:22:40.180Z,18.90
2022-09-03T21:25:32.575Z,18.90
2022-09-03T21:28:24.470Z,18.80
2022-09-03T21:31:16.343Z,18.80
2022-09-03T21:34:14.900Z,18.70
2022-09-03T21:37:04.477Z,18.70
2022-09-03T21:39:55.715Z,18.80
2022-09-03T21:42:47.070Z,18.60
2022-09-03T21:45:41.386Z,18.60
2022-09-03T21:48:35.102Z,18.60
2022-09-03T21:51:26.253Z,18.70
2022-09-03T21:54:18.307Z,18.60
2022-09-03T21:57:17.552Z,18.60
2022-09-03T22:00:14.325Z,18.70
2022-09-03T22:03:01.901Z,18.60
2022-09-03T22:05:54.896Z,18.70
2022-09-03T22:08:49.832Z,18.60
2022-09-03T22:11:41.423Z,18.60
2022-09-03T22:14:33.914Z,18.50
2022-09-03T22:17:28.403Z,18.70
2022-09-03T22:20:19.036Z,18.90
2022-09-03T22:23:12.275Z,18.90
2022-09-03T22:26:04.271Z,19.00
2022-09-03T22:29:03.448Z,18.60
2022-09-03T22:32:02.698Z,18.40
2022-09-03T22:35:02.187Z,18.30
2022-09-03T22:38:06.703Z,18.40
2022-09-03T22:41:01.539Z,18.20
2022-09-03T22:44:00.057Z,18.20
2022-09-03T22:46:56.267Z,18.20
2022-09-03T22:49:52.354Z,18.10
2022-09-03T22:52:45.134Z,18.20
2022-09-03T22:55:32.318Z,18.20
2022-09-03T22:58:23.550Z,18.20
2022-09-03T23:01:16.228Z,18.20
2022-09-03T23:04:11.642Z,18.20
2022-09-03T23:07:05.391Z,18.20
2022-09-03T23:09:55.665Z,18.20
2022-09-03T23:12:47.249Z,18.10
2022-09-03T23:15:37.189Z,18.10
2022-09-03T23:18:27.097Z,18.10
2022-09-03T23:21:23.788Z,18.20
2022-09-03T23:24:17.920Z,18.20
2022-09-03T23:27:08.670Z,18.30
2022-09-03T23:29:57.921Z,18.30
2022-09-03T23:32:44.876Z,18.20
2022-09-03T23:35:40.043Z,18.10
2022-09-03T23:38:38.819Z,18.00
2022-09-03T23:41:37.140Z,17.90
2022-09-03T23:44:43.888Z,17.80
2022-09-03T23:47:40.758Z,17.80
2022-09-03T23:50:37.409Z,18.00
2022-09-03T23:53:43.996Z,18.00
2022-09-03T23:56:47.621Z,18.00
2022-09-03T23:59:49.066Z,18.00
